This is the latest recevied weather packets stored in our database for station/object IT9CYW-12. If no packets are shown the sender has not sent any weather packets the latest 1 day(s).
| Time | Temp. | Humidity | Pressure | Rain* | Wind** | Luminosity | Snow |
|---|---|---|---|---|---|---|---|
| 1778048026 | 18.33° C | 57% | 977.5 hPa | - | 0 m/s | 306 W/m² | - |
| 1778047125 | 16.67° C | 66% | 977.5 hPa | - | 0 m/s | 98 W/m² | - |
| 1778046225 | 16.67° C | 66% | 977.4 hPa | - | 0 m/s | 39 W/m² | - |
| 1778036087 | 17.78° C | 54% | 976.9 hPa | - | 0.45 m/s, 273° | 0 W/m² | - |
| 1778035187 | 17.22° C | 58% | 976.9 hPa | - | 0.45 m/s, 314° | 0 W/m² | - |
| 1778034287 | 17.78° C | 59% | 976.5 hPa | - | 0.45 m/s, 267° | 0 W/m² | - |
| 1778033387 | 17.22° C | 62% | 976.5 hPa | - | 0.45 m/s, 248° | 0 W/m² | - |
| 1778032486 | 16.67° C | 65% | 976.5 hPa | - | 0 m/s | 0 W/m² | - |
| 1778031586 | 16.67° C | 66% | 976.5 hPa | - | 0.89 m/s, 332° | 0 W/m² | - |
| 1778029792 | 17.78° C | 61% | 976.2 hPa | - | 0.45 m/s, 348° | 0 W/m² | - |
| 1778028892 | 17.22° C | 63% | 976.5 hPa | - | 0.45 m/s, 315° | 0 W/m² | - |
| 1778027992 | 17.78° C | 61% | 976.5 hPa | - | 0 m/s | 0 W/m² | - |
| 1778027092 | 17.22° C | 60% | 976.9 hPa | - | 0.89 m/s, 295° | 0 W/m² | - |
| 1778026191 | 17.22° C | 62% | 976.7 hPa | - | 0 m/s | 0 W/m² | - |
| 1778025291 | 17.22° C | 64% | 977 hPa | - | 0.45 m/s, 281° | 0 W/m² | - |
| 1778024391 | 16.67° C | 64% | 977.5 hPa | - | 0.45 m/s, 285° | 0 W/m² | - |
| 1778023490 | 17.22° C | 63% | 977 hPa | - | 0 m/s | 0 W/m² | - |
| 1778022590 | 16.67° C | 65% | 977.2 hPa | - | 0.89 m/s, 298° | 0 W/m² | - |
| 1778021689 | 16.11° C | 71% | 977.4 hPa | - | 0 m/s | 0 W/m² | - |
| 1778020789 | 16.11° C | 77% | 977.9 hPa | - | 0 m/s | 0 W/m² | - |
| 1778019889 | 15.56° C | 75% | 977.7 hPa | - | 0 m/s | 0 W/m² | - |
| 1778018988 | 16.11° C | 82% | 977.7 hPa | - | 0 m/s | 0 W/m² | - |
| 1778018088 | 16.11° C | 82% | 978 hPa | - | 0 m/s | 0 W/m² | - |
| 1778017188 | 16.11° C | 83% | 977.7 hPa | - | 0 m/s | 0 W/m² | - |
| 1778016288 | 16.11° C | 83% | 977.9 hPa | - | 0 m/s | 0 W/m² | - |
* Rain since midnight (hover to see other rain measurements)
** Current wind speed in m/s (hover to see current wind gust speed)